sensor_id;sensor_type;location;lat;lon;timestamp;pressure;altitude;pressure_sealevel;temperature;humidity
40570;BME280;26270;34.428;-119.710;2022-12-19T00:02:17;101265.16;;;16.34;53.94
40570;BME280;26270;34.428;-119.710;2022-12-19T00:04:44;101270.07;;;16.40;53.91
40570;BME280;26270;34.428;-119.710;2022-12-19T00:07:13;101274.86;;;16.18;54.04
40570;BME280;26270;34.428;-119.710;2022-12-19T00:09:41;101282.46;;;16.25;54.31
40570;BME280;26270;34.428;-119.710;2022-12-19T00:12:10;101284.16;;;16.16;53.71
40570;BME280;26270;34.428;-119.710;2022-12-19T00:14:39;101286.67;;;16.08;54.12
40570;BME280;26270;34.428;-119.710;2022-12-19T00:17:07;101287.99;;;15.87;54.40
40570;BME280;26270;34.428;-119.710;2022-12-19T00:19:35;101290.48;;;16.01;53.93
40570;BME280;26270;34.428;-119.710;2022-12-19T00:22:04;101293.02;;;15.86;54.37
40570;BME280;26270;34.428;-119.710;2022-12-19T00:24:33;101290.98;;;16.05;53.67
40570;BME280;26270;34.428;-119.710;2022-12-19T00:27:01;101288.17;;;15.89;54.32
40570;BME280;26270;34.428;-119.710;2022-12-19T00:29:28;101290.64;;;15.95;54.47
40570;BME280;26270;34.428;-119.710;2022-12-19T00:31:57;101291.75;;;15.81;55.11
40570;BME280;26270;34.428;-119.710;2022-12-19T00:34:26;101293.47;;;15.71;55.35
40570;BME280;26270;34.428;-119.710;2022-12-19T00:36:54;101289.24;;;15.42;55.82
40570;BME280;26270;34.428;-119.710;2022-12-19T00:39:23;101285.59;;;15.48;56.05
40570;BME280;26270;34.428;-119.710;2022-12-19T00:41:51;101284.74;;;15.44;56.19
40570;BME280;26270;34.428;-119.710;2022-12-19T00:44:19;101289.25;;;15.41;56.35
40570;BME280;26270;34.428;-119.710;2022-12-19T00:46:48;101291.61;;;15.27;56.77
40570;BME280;26270;34.428;-119.710;2022-12-19T00:49:16;101289.60;;;15.25;56.78
40570;BME280;26270;34.428;-119.710;2022-12-19T00:51:45;101290.42;;;15.18;57.46
40570;BME280;26270;34.428;-119.710;2022-12-19T00:54:13;101291.85;;;15.16;57.22
40570;BME280;26270;34.428;-119.710;2022-12-19T00:56:42;101296.72;;;14.91;57.87
40570;BME280;26270;34.428;-119.710;2022-12-19T00:59:10;101295.84;;;15.00;57.73
40570;BME280;26270;34.428;-119.710;2022-12-19T01:01:40;101294.70;;;15.23;58.15
40570;BME280;26270;34.428;-119.710;2022-12-19T01:04:11;101298.82;;;14.97;58.25
40570;BME280;26270;34.428;-119.710;2022-12-19T01:06:40;101298.24;;;14.91;58.88
40570;BME280;26270;34.428;-119.710;2022-12-19T01:09:08;101295.25;;;14.79;59.12
40570;BME280;26270;34.428;-119.710;2022-12-19T01:11:37;101298.22;;;14.65;59.29
40570;BME280;26270;34.428;-119.710;2022-12-19T01:14:06;101295.35;;;14.68;58.87
40570;BME280;26270;34.428;-119.710;2022-12-19T01:16:34;101297.06;;;14.82;59.08
40570;BME280;26270;34.428;-119.710;2022-12-19T01:19:02;101295.23;;;14.72;59.56
40570;BME280;26270;34.428;-119.710;2022-12-19T01:21:37;101294.05;;;14.54;59.85
40570;BME280;26270;34.428;-119.710;2022-12-19T01:24:05;101298.95;;;14.60;60.44
40570;BME280;26270;34.428;-119.710;2022-12-19T01:26:34;101301.32;;;14.69;60.65
40570;BME280;26270;34.428;-119.710;2022-12-19T01:29:03;101304.84;;;14.54;60.95
40570;BME280;26270;34.428;-119.710;2022-12-19T01:31:32;101302.20;;;14.61;60.53
40570;BME280;26270;34.428;-119.710;2022-12-19T01:34:01;101309.06;;;14.45;61.16
40570;BME280;26270;34.428;-119.710;2022-12-19T01:36:30;101312.19;;;14.35;61.37
40570;BME280;26270;34.428;-119.710;2022-12-19T01:38:58;101316.68;;;14.41;61.34
40570;BME280;26270;34.428;-119.710;2022-12-19T01:41:26;101318.28;;;14.47;61.68
40570;BME280;26270;34.428;-119.710;2022-12-19T01:43:56;101319.35;;;14.21;61.80
40570;BME280;26270;34.428;-119.710;2022-12-19T01:46:28;101326.38;;;14.25;61.48
40570;BME280;26270;34.428;-119.710;2022-12-19T01:48:59;101331.98;;;14.50;61.39
40570;BME280;26270;34.428;-119.710;2022-12-19T01:51:33;101339.46;;;14.48;61.62
40570;BME280;26270;34.428;-119.710;2022-12-19T01:54:06;101344.63;;;14.46;61.72
40570;BME280;26270;34.428;-119.710;2022-12-19T01:56:39;101347.97;;;14.21;62.18
40570;BME280;26270;34.428;-119.710;2022-12-19T01:59:12;101348.55;;;14.01;62.82
40570;BME280;26270;34.428;-119.710;2022-12-19T02:01:45;101348.32;;;14.04;63.25
40570;BME280;26270;34.428;-119.710;2022-12-19T02:04:13;101344.48;;;13.98;63.37
40570;BME280;26270;34.428;-119.710;2022-12-19T02:06:42;101342.55;;;13.94;63.40
40570;BME280;26270;34.428;-119.710;2022-12-19T02:09:11;101342.13;;;13.98;63.60
40570;BME280;26270;34.428;-119.710;2022-12-19T02:11:39;101345.53;;;13.87;64.00
40570;BME280;26270;34.428;-119.710;2022-12-19T02:14:07;101351.76;;;13.96;63.89
40570;BME280;26270;34.428;-119.710;2022-12-19T02:16:41;101356.81;;;13.81;64.19
40570;BME280;26270;34.428;-119.710;2022-12-19T02:19:32;101361.48;;;13.77;64.33
40570;BME280;26270;34.428;-119.710;2022-12-19T02:22:14;101369.84;;;13.69;64.46
40570;BME280;26270;34.428;-119.710;2022-12-19T02:25:00;101372.40;;;13.82;64.25
40570;BME280;26270;34.428;-119.710;2022-12-19T02:27:53;101377.38;;;13.77;64.40
40570;BME280;26270;34.428;-119.710;2022-12-19T02:30:37;101378.46;;;13.72;64.88
40570;BME280;26270;34.428;-119.710;2022-12-19T02:33:16;101379.63;;;13.69;64.89
40570;BME280;26270;34.428;-119.710;2022-12-19T02:35:53;101378.37;;;13.61;64.91
40570;BME280;26270;34.428;-119.710;2022-12-19T02:38:28;101380.37;;;13.65;64.93
40570;BME280;26270;34.428;-119.710;2022-12-19T02:41:02;101382.71;;;13.54;65.28
40570;BME280;26270;34.428;-119.710;2022-12-19T02:43:37;101384.99;;;13.55;64.89
40570;BME280;26270;34.428;-119.710;2022-12-19T02:46:06;101387.20;;;13.47;65.44
40570;BME280;26270;34.428;-119.710;2022-12-19T02:48:34;101391.79;;;13.35;66.14
40570;BME280;26270;34.428;-119.710;2022-12-19T02:51:03;101390.71;;;13.06;66.53
40570;BME280;26270;34.428;-119.710;2022-12-19T02:53:32;101392.82;;;13.32;66.26
40570;BME280;26270;34.428;-119.710;2022-12-19T02:56:16;101395.89;;;13.42;65.66
40570;BME280;26270;34.428;-119.710;2022-12-19T02:59:01;101398.76;;;13.26;65.77
40570;BME280;26270;34.428;-119.710;2022-12-19T03:01:41;101401.71;;;13.12;66.80
40570;BME280;26270;34.428;-119.710;2022-12-19T03:04:19;101406.14;;;13.11;66.88
40570;BME280;26270;34.428;-119.710;2022-12-19T03:07:00;101413.68;;;12.96;67.02
40570;BME280;26270;34.428;-119.710;2022-12-19T03:09:34;101418.16;;;12.88;67.40
40570;BME280;26270;34.428;-119.710;2022-12-19T03:12:10;101418.86;;;12.98;67.26
40570;BME280;26270;34.428;-119.710;2022-12-19T03:14:42;101416.08;;;12.90;67.22
40570;BME280;26270;34.428;-119.710;2022-12-19T03:17:10;101424.97;;;12.71;67.03
40570;BME280;26270;34.428;-119.710;2022-12-19T03:19:39;101433.20;;;12.66;67.18
40570;BME280;26270;34.428;-119.710;2022-12-19T03:22:08;101436.47;;;12.70;67.27
40570;BME280;26270;34.428;-119.710;2022-12-19T03:24:36;101438.80;;;12.69;67.05
40570;BME280;26270;34.428;-119.710;2022-12-19T03:27:08;101444.70;;;12.62;67.38
40570;BME280;26270;34.428;-119.710;2022-12-19T03:29:43;101448.97;;;12.83;66.82
40570;BME280;26270;34.428;-119.710;2022-12-19T03:32:16;101456.73;;;12.61;67.04
40570;BME280;26270;34.428;-119.710;2022-12-19T03:34:47;101466.17;;;12.71;66.01
40570;BME280;26270;34.428;-119.710;2022-12-19T03:37:18;101466.70;;;12.77;66.19
40570;BME280;26270;34.428;-119.710;2022-12-19T03:39:54;101463.21;;;12.39;66.87
40570;BME280;26270;34.428;-119.710;2022-12-19T03:42:26;101462.02;;;12.45;66.69
40570;BME280;26270;34.428;-119.710;2022-12-19T03:44:57;101457.31;;;12.47;66.94
40570;BME280;26270;34.428;-119.710;2022-12-19T03:47:32;101457.98;;;12.41;67.10
40570;BME280;26270;34.428;-119.710;2022-12-19T03:50:02;101465.06;;;12.38;67.11
40570;BME280;26270;34.428;-119.710;2022-12-19T03:52:37;101466.61;;;12.41;67.19
40570;BME280;26270;34.428;-119.710;2022-12-19T03:55:11;101469.50;;;12.39;66.64
40570;BME280;26270;34.428;-119.710;2022-12-19T03:57:45;101476.89;;;12.15;67.16
40570;BME280;26270;34.428;-119.710;2022-12-19T04:00:16;101480.06;;;12.24;67.19
40570;BME280;26270;34.428;-119.710;2022-12-19T04:02:47;101489.09;;;12.28;67.09
40570;BME280;26270;34.428;-119.710;2022-12-19T04:05:19;101498.84;;;12.33;66.84
40570;BME280;26270;34.428;-119.710;2022-12-19T04:07:49;101511.26;;;12.37;66.98
40570;BME280;26270;34.428;-119.710;2022-12-19T04:10:22;101516.32;;;12.23;67.14
40570;BME280;26270;34.428;-119.710;2022-12-19T04:13:01;101512.29;;;12.24;66.77
40570;BME280;26270;34.428;-119.710;2022-12-19T04:15:34;101513.09;;;12.04;67.02
40570;BME280;26270;34.428;-119.710;2022-12-19T04:18:06;101520.50;;;11.81;67.95
40570;BME280;26270;34.428;-119.710;2022-12-19T04:20:41;101523.23;;;11.52;69.06
40570;BME280;26270;34.428;-119.710;2022-12-19T04:23:17;101526.99;;;11.36;69.97
40570;BME280;26270;34.428;-119.710;2022-12-19T04:25:49;101526.54;;;11.83;69.51
40570;BME280;26270;34.428;-119.710;2022-12-19T04:28:21;101529.01;;;11.81;68.63
40570;BME280;26270;34.428;-119.710;2022-12-19T04:30:52;101530.45;;;11.99;68.41
40570;BME280;26270;34.428;-119.710;2022-12-19T04:33:21;101527.76;;;11.91;68.59
40570;BME280;26270;34.428;-119.710;2022-12-19T04:35:49;101511.61;;;11.86;68.16
40570;BME280;26270;34.428;-119.710;2022-12-19T04:38:22;101502.43;;;11.87;68.04
40570;BME280;26270;34.428;-119.710;2022-12-19T04:40:50;101503.47;;;11.87;67.73
40570;BME280;26270;34.428;-119.710;2022-12-19T04:43:18;101511.49;;;11.68;68.28
40570;BME280;26270;34.428;-119.710;2022-12-19T04:45:46;101513.51;;;11.64;68.42
40570;BME280;26270;34.428;-119.710;2022-12-19T04:48:14;101518.51;;;11.64;68.42
40570;BME280;26270;34.428;-119.710;2022-12-19T04:50:43;101519.35;;;11.65;68.19
40570;BME280;26270;34.428;-119.710;2022-12-19T04:53:11;101518.87;;;11.67;67.96
40570;BME280;26270;34.428;-119.710;2022-12-19T04:55:39;101516.63;;;11.58;67.85
40570;BME280;26270;34.428;-119.710;2022-12-19T04:58:07;101521.93;;;11.52;67.91
40570;BME280;26270;34.428;-119.710;2022-12-19T05:03:19;101524.16;;;11.61;68.38
40570;BME280;26270;34.428;-119.710;2022-12-19T05:05:47;101530.14;;;11.43;67.99
40570;BME280;26270;34.428;-119.710;2022-12-19T05:08:16;101533.48;;;11.41;68.63
40570;BME280;26270;34.428;-119.710;2022-12-19T05:10:44;101535.09;;;11.33;68.74
40570;BME280;26270;34.428;-119.710;2022-12-19T05:13:12;101535.83;;;11.15;69.58
40570;BME280;26270;34.428;-119.710;2022-12-19T05:15:39;101532.18;;;11.11;69.96
40570;BME280;26270;34.428;-119.710;2022-12-19T05:18:07;101525.70;;;11.09;69.75
40570;BME280;26270;34.428;-119.710;2022-12-19T05:20:36;101529.99;;;11.35;69.86
40570;BME280;26270;34.428;-119.710;2022-12-19T05:23:05;101538.17;;;11.28;69.86
40570;BME280;26270;34.428;-119.710;2022-12-19T05:25:34;101548.54;;;11.27;69.60
40570;BME280;26270;34.428;-119.710;2022-12-19T05:28:02;101555.07;;;11.25;69.08
40570;BME280;26270;34.428;-119.710;2022-12-19T05:30:30;101556.10;;;11.39;68.87
40570;BME280;26270;34.428;-119.710;2022-12-19T05:32:58;101553.86;;;10.88;69.75
40570;BME280;26270;34.428;-119.710;2022-12-19T05:35:26;101557.19;;;10.71;70.73
40570;BME280;26270;34.428;-119.710;2022-12-19T05:37:55;101557.50;;;10.86;70.60
40570;BME280;26270;34.428;-119.710;2022-12-19T05:40:23;101555.49;;;11.08;69.89
40570;BME280;26270;34.428;-119.710;2022-12-19T05:42:52;101560.60;;;11.06;69.65
40570;BME280;26270;34.428;-119.710;2022-12-19T05:45:21;101562.51;;;11.01;69.38
40570;BME280;26270;34.428;-119.710;2022-12-19T05:47:49;101568.49;;;11.07;69.15
40570;BME280;26270;34.428;-119.710;2022-12-19T05:50:18;101576.16;;;11.01;69.08
40570;BME280;26270;34.428;-119.710;2022-12-19T05:52:46;101579.73;;;11.11;68.61
40570;BME280;26270;34.428;-119.710;2022-12-19T05:55:14;101584.77;;;11.04;68.80
40570;BME280;26270;34.428;-119.710;2022-12-19T05:57:42;101587.40;;;11.04;68.67
40570;BME280;26270;34.428;-119.710;2022-12-19T06:00:11;101587.33;;;11.04;68.81
40570;BME280;26270;34.428;-119.710;2022-12-19T06:02:39;101591.16;;;11.07;68.60
40570;BME280;26270;34.428;-119.710;2022-12-19T06:05:08;101592.73;;;11.03;68.68
40570;BME280;26270;34.428;-119.710;2022-12-19T06:07:36;101593.47;;;11.11;68.48
40570;BME280;26270;34.428;-119.710;2022-12-19T06:10:05;101599.47;;;11.07;68.36
40570;BME280;26270;34.428;-119.710;2022-12-19T06:12:34;101604.60;;;10.98;68.58
40570;BME280;26270;34.428;-119.710;2022-12-19T06:15:02;101612.62;;;10.98;68.89
40570;BME280;26270;34.428;-119.710;2022-12-19T06:17:31;101616.30;;;10.96;68.70
40570;BME280;26270;34.428;-119.710;2022-12-19T06:19:59;101614.03;;;10.88;68.90
40570;BME280;26270;34.428;-119.710;2022-12-19T06:22:27;101616.04;;;10.77;68.82
40570;BME280;26270;34.428;-119.710;2022-12-19T06:24:55;101621.70;;;10.81;68.64
40570;BME280;26270;34.428;-119.710;2022-12-19T06:27:23;101619.01;;;10.88;68.80
40570;BME280;26270;34.428;-119.710;2022-12-19T06:29:51;101620.30;;;10.90;68.59
40570;BME280;26270;34.428;-119.710;2022-12-19T06:32:18;101623.39;;;10.77;68.78
40570;BME280;26270;34.428;-119.710;2022-12-19T06:34:47;101623.84;;;10.75;68.87
40570;BME280;26270;34.428;-119.710;2022-12-19T06:37:15;101626.72;;;10.73;69.09
40570;BME280;26270;34.428;-119.710;2022-12-19T06:39:42;101630.69;;;10.61;69.22
40570;BME280;26270;34.428;-119.710;2022-12-19T06:42:10;101632.16;;;10.58;68.83
40570;BME280;26270;34.428;-119.710;2022-12-19T06:44:38;101635.36;;;10.65;68.86
40570;BME280;26270;34.428;-119.710;2022-12-19T06:47:06;101636.92;;;10.59;69.00
40570;BME280;26270;34.428;-119.710;2022-12-19T06:49:35;101639.26;;;10.71;68.81
40570;BME280;26270;34.428;-119.710;2022-12-19T06:52:03;101636.72;;;10.60;69.41
40570;BME280;26270;34.428;-119.710;2022-12-19T06:54:31;101637.81;;;10.63;69.46
40570;BME280;26270;34.428;-119.710;2022-12-19T06:56:59;101634.72;;;10.62;68.77
40570;BME280;26270;34.428;-119.710;2022-12-19T06:59:27;101632.36;;;10.33;70.03
40570;BME280;26270;34.428;-119.710;2022-12-19T07:01:58;101634.30;;;10.48;70.30
40570;BME280;26270;34.428;-119.710;2022-12-19T07:04:31;101640.69;;;10.37;70.18
40570;BME280;26270;34.428;-119.710;2022-12-19T07:07:01;101645.65;;;10.48;69.54
40570;BME280;26270;34.428;-119.710;2022-12-19T07:09:30;101647.84;;;10.45;69.52
40570;BME280;26270;34.428;-119.710;2022-12-19T07:12:00;101649.18;;;10.38;69.28
40570;BME280;26270;34.428;-119.710;2022-12-19T07:14:29;101651.82;;;10.54;69.53
40570;BME280;26270;34.428;-119.710;2022-12-19T07:16:58;101654.74;;;10.58;69.18
40570;BME280;26270;34.428;-119.710;2022-12-19T07:19:27;101659.72;;;10.44;69.79
40570;BME280;26270;34.428;-119.710;2022-12-19T07:21:55;101663.64;;;10.38;69.58
40570;BME280;26270;34.428;-119.710;2022-12-19T07:24:23;101662.76;;;10.31;69.86
40570;BME280;26270;34.428;-119.710;2022-12-19T07:26:52;101664.30;;;10.34;69.86
40570;BME280;26270;34.428;-119.710;2022-12-19T07:29:20;101660.26;;;10.16;70.65
40570;BME280;26270;34.428;-119.710;2022-12-19T07:31:48;101661.99;;;10.42;70.46
40570;BME280;26270;34.428;-119.710;2022-12-19T07:34:16;101663.92;;;10.36;70.12
40570;BME280;26270;34.428;-119.710;2022-12-19T07:36:44;101664.62;;;10.40;70.30
40570;BME280;26270;34.428;-119.710;2022-12-19T07:39:12;101667.23;;;10.33;70.31
40570;BME280;26270;34.428;-119.710;2022-12-19T07:41:40;101666.62;;;10.23;70.05
40570;BME280;26270;34.428;-119.710;2022-12-19T07:44:08;101660.72;;;10.40;70.41
40570;BME280;26270;34.428;-119.710;2022-12-19T07:46:37;101659.87;;;10.44;70.50
40570;BME280;26270;34.428;-119.710;2022-12-19T07:49:06;101660.93;;;10.43;69.73
40570;BME280;26270;34.428;-119.710;2022-12-19T07:51:35;101664.63;;;10.54;69.91
40570;BME280;26270;34.428;-119.710;2022-12-19T07:54:06;101662.69;;;10.25;69.45
40570;BME280;26270;34.428;-119.710;2022-12-19T07:56:34;101662.46;;;10.31;69.40
40570;BME280;26270;34.428;-119.710;2022-12-19T07:59:02;101660.99;;;10.28;69.13
40570;BME280;26270;34.428;-119.710;2022-12-19T08:01:30;101660.39;;;10.21;69.04
40570;BME280;26270;34.428;-119.710;2022-12-19T08:03:59;101660.90;;;10.12;69.14
40570;BME280;26270;34.428;-119.710;2022-12-19T08:06:27;101657.83;;;10.15;68.82
40570;BME280;26270;34.428;-119.710;2022-12-19T08:08:56;101653.76;;;10.07;68.60
40570;BME280;26270;34.428;-119.710;2022-12-19T08:11:24;101652.64;;;9.99;68.79
40570;BME280;26270;34.428;-119.710;2022-12-19T08:13:52;101653.54;;;9.95;68.88
40570;BME280;26270;34.428;-119.710;2022-12-19T08:16:20;101652.38;;;9.90;68.98
40570;BME280;26270;34.428;-119.710;2022-12-19T08:18:49;101650.86;;;9.85;69.12
40570;BME280;26270;34.428;-119.710;2022-12-19T08:21:17;101651.88;;;9.89;69.19
40570;BME280;26270;34.428;-119.710;2022-12-19T08:23:46;101650.86;;;9.86;69.17
40570;BME280;26270;34.428;-119.710;2022-12-19T08:26:16;101649.01;;;9.91;69.38
40570;BME280;26270;34.428;-119.710;2022-12-19T08:28:48;101649.77;;;10.05;69.61
40570;BME280;26270;34.428;-119.710;2022-12-19T08:31:17;101651.19;;;10.08;70.69
40570;BME280;26270;34.428;-119.710;2022-12-19T08:33:46;101655.38;;;10.05;70.81
40570;BME280;26270;34.428;-119.710;2022-12-19T08:36:16;101655.58;;;10.00;70.62
40570;BME280;26270;34.428;-119.710;2022-12-19T08:38:44;101655.74;;;9.97;70.60
40570;BME280;26270;34.428;-119.710;2022-12-19T08:41:13;101660.14;;;10.09;70.23
40570;BME280;26270;34.428;-119.710;2022-12-19T08:43:42;101660.23;;;9.96;70.01
40570;BME280;26270;34.428;-119.710;2022-12-19T08:46:10;101661.96;;;9.82;69.99
40570;BME280;26270;34.428;-119.710;2022-12-19T08:48:38;101661.13;;;9.75;70.12
40570;BME280;26270;34.428;-119.710;2022-12-19T08:51:07;101660.10;;;9.95;69.94
40570;BME280;26270;34.428;-119.710;2022-12-19T08:53:39;101664.67;;;9.86;69.49
40570;BME280;26270;34.428;-119.710;2022-12-19T08:56:10;101668.60;;;9.83;69.52
40570;BME280;26270;34.428;-119.710;2022-12-19T08:58:39;101667.26;;;9.72;69.12
40570;BME280;26270;34.428;-119.710;2022-12-19T09:01:10;101667.53;;;9.67;69.06
40570;BME280;26270;34.428;-119.710;2022-12-19T09:03:38;101666.77;;;9.77;68.76
40570;BME280;26270;34.428;-119.710;2022-12-19T09:06:08;101671.16;;;9.41;69.84
40570;BME280;26270;34.428;-119.710;2022-12-19T09:08:38;101675.30;;;9.51;69.84
40570;BME280;26270;34.428;-119.710;2022-12-19T09:11:08;101683.51;;;9.64;69.76
40570;BME280;26270;34.428;-119.710;2022-12-19T09:13:38;101692.30;;;9.54;69.36
40570;BME280;26270;34.428;-119.710;2022-12-19T09:16:09;101698.05;;;9.80;69.85
40570;BME280;26270;34.428;-119.710;2022-12-19T09:18:39;101702.59;;;9.61;70.27
40570;BME280;26270;34.428;-119.710;2022-12-19T09:21:07;101708.94;;;9.50;71.02
40570;BME280;26270;34.428;-119.710;2022-12-19T09:23:35;101716.28;;;9.49;70.99
40570;BME280;26270;34.428;-119.710;2022-12-19T09:26:06;101720.48;;;9.54;71.30
40570;BME280;26270;34.428;-119.710;2022-12-19T09:28:36;101722.48;;;9.77;71.04
40570;BME280;26270;34.428;-119.710;2022-12-19T09:31:05;101725.39;;;9.71;70.88
40570;BME280;26270;34.428;-119.710;2022-12-19T09:33:35;101725.72;;;9.77;70.91
40570;BME280;26270;34.428;-119.710;2022-12-19T09:36:05;101732.12;;;9.81;70.40
40570;BME280;26270;34.428;-119.710;2022-12-19T09:38:34;101737.32;;;9.75;70.48
40570;BME280;26270;34.428;-119.710;2022-12-19T09:41:29;101742.29;;;9.74;70.39
40570;BME280;26270;34.428;-119.710;2022-12-19T09:44:08;101740.01;;;9.68;70.45
40570;BME280;26270;34.428;-119.710;2022-12-19T09:46:47;101741.57;;;9.67;70.17
40570;BME280;26270;34.428;-119.710;2022-12-19T09:49:19;101743.28;;;9.63;70.06
40570;BME280;26270;34.428;-119.710;2022-12-19T09:51:56;101744.46;;;9.54;70.08
40570;BME280;26270;34.428;-119.710;2022-12-19T09:54:33;101743.47;;;9.60;69.98
40570;BME280;26270;34.428;-119.710;2022-12-19T09:57:08;101741.77;;;9.64;70.42
40570;BME280;26270;34.428;-119.710;2022-12-19T09:59:41;101739.76;;;9.44;71.76
40570;BME280;26270;34.428;-119.710;2022-12-19T10:02:25;101739.85;;;9.54;72.17
40570;BME280;26270;34.428;-119.710;2022-12-19T10:05:01;101741.03;;;9.69;72.27
40570;BME280;26270;34.428;-119.710;2022-12-19T10:07:30;101737.30;;;9.59;71.75
40570;BME280;26270;34.428;-119.710;2022-12-19T10:09:59;101741.06;;;9.39;70.16
40570;BME280;26270;34.428;-119.710;2022-12-19T10:12:41;101735.97;;;9.47;69.63
40570;BME280;26270;34.428;-119.710;2022-12-19T10:15:17;101734.09;;;9.30;69.59
40570;BME280;26270;34.428;-119.710;2022-12-19T10:18:54;101738.23;;;9.31;69.17
40570;BME280;26270;34.428;-119.710;2022-12-19T10:21:33;101738.31;;;9.32;68.67
40570;BME280;26270;34.428;-119.710;2022-12-19T10:24:14;101741.63;;;9.12;68.69
40570;BME280;26270;34.428;-119.710;2022-12-19T10:26:50;101743.62;;;9.23;68.27
40570;BME280;26270;34.428;-119.710;2022-12-19T10:29:35;101746.71;;;9.09;68.47
40570;BME280;26270;34.428;-119.710;2022-12-19T10:32:14;101748.12;;;9.09;68.21
40570;BME280;26270;34.428;-119.710;2022-12-19T10:34:44;101749.01;;;9.05;68.07
40570;BME280;26270;34.428;-119.710;2022-12-19T10:37:19;101748.78;;;8.95;68.38
40570;BME280;26270;34.428;-119.710;2022-12-19T10:39:55;101749.84;;;8.95;69.06
40570;BME280;26270;34.428;-119.710;2022-12-19T10:42:33;101751.84;;;9.12;69.72
40570;BME280;26270;34.428;-119.710;2022-12-19T10:45:12;101751.00;;;9.13;69.78
40570;BME280;26270;34.428;-119.710;2022-12-19T10:47:41;101750.91;;;8.98;70.27
40570;BME280;26270;34.428;-119.710;2022-12-19T10:50:12;101754.68;;;9.09;70.25
40570;BME280;26270;34.428;-119.710;2022-12-19T10:52:51;101758.68;;;9.06;70.42
40570;BME280;26270;34.428;-119.710;2022-12-19T10:55:29;101762.26;;;9.23;70.26
40570;BME280;26270;34.428;-119.710;2022-12-19T10:58:15;101762.39;;;9.24;70.39
40570;BME280;26270;34.428;-119.710;2022-12-19T11:01:27;101761.75;;;9.20;70.22
40570;BME280;26270;34.428;-119.710;2022-12-19T11:04:32;101760.13;;;9.40;70.02
40570;BME280;26270;34.428;-119.710;2022-12-19T11:07:19;101757.03;;;9.40;69.89
40570;BME280;26270;34.428;-119.710;2022-12-19T11:09:47;101757.01;;;9.53;69.06
40570;BME280;26270;34.428;-119.710;2022-12-19T11:12:17;101758.72;;;9.41;68.87
40570;BME280;26270;34.428;-119.710;2022-12-19T11:14:51;101759.13;;;9.14;69.21
40570;BME280;26270;34.428;-119.710;2022-12-19T11:17:25;101761.58;;;8.97;68.91
40570;BME280;26270;34.428;-119.710;2022-12-19T11:19:55;101765.95;;;8.99;68.62
40570;BME280;26270;34.428;-119.710;2022-12-19T11:22:25;101767.96;;;8.90;68.33
40570;BME280;26270;34.428;-119.710;2022-12-19T11:24:55;101775.74;;;8.98;68.06
40570;BME280;26270;34.428;-119.710;2022-12-19T11:27:36;101774.61;;;8.82;67.75
40570;BME280;26270;34.428;-119.710;2022-12-19T11:30:17;101777.76;;;8.71;67.31
40570;BME280;26270;34.428;-119.710;2022-12-19T11:32:47;101773.88;;;8.68;66.72
40570;BME280;26270;34.428;-119.710;2022-12-19T11:35:19;101774.67;;;8.70;66.81
40570;BME280;26270;34.428;-119.710;2022-12-19T11:37:51;101774.49;;;8.59;67.13
40570;BME280;26270;34.428;-119.710;2022-12-19T11:40:30;101773.52;;;8.64;67.21
40570;BME280;26270;34.428;-119.710;2022-12-19T11:43:05;101774.77;;;8.57;67.58
40570;BME280;26270;34.428;-119.710;2022-12-19T11:45:42;101776.88;;;8.67;67.78
40570;BME280;26270;34.428;-119.710;2022-12-19T11:48:19;101772.64;;;8.77;67.49
40570;BME280;26270;34.428;-119.710;2022-12-19T11:50:58;101775.04;;;8.54;67.30
40570;BME280;26270;34.428;-119.710;2022-12-19T11:53:31;101773.44;;;8.60;66.98
40570;BME280;26270;34.428;-119.710;2022-12-19T11:56:05;101770.35;;;8.58;66.79
40570;BME280;26270;34.428;-119.710;2022-12-19T11:58:35;101766.23;;;8.52;66.75
40570;BME280;26270;34.428;-119.710;2022-12-19T12:01:11;101767.51;;;8.49;67.18
40570;BME280;26270;34.428;-119.710;2022-12-19T12:04:18;101772.05;;;8.61;66.85
40570;BME280;26270;34.428;-119.710;2022-12-19T12:06:51;101775.93;;;8.50;66.85
40570;BME280;26270;34.428;-119.710;2022-12-19T12:09:29;101776.61;;;8.41;66.29
40570;BME280;26270;34.428;-119.710;2022-12-19T12:12:04;101777.32;;;8.46;66.55
40570;BME280;26270;34.428;-119.710;2022-12-19T12:14:51;101780.95;;;8.40;66.59
40570;BME280;26270;34.428;-119.710;2022-12-19T12:17:34;101781.49;;;8.35;66.72
40570;BME280;26270;34.428;-119.710;2022-12-19T12:20:20;101782.88;;;8.23;66.62
40570;BME280;26270;34.428;-119.710;2022-12-19T12:23:02;101784.17;;;8.30;66.85
40570;BME280;26270;34.428;-119.710;2022-12-19T12:25:46;101788.11;;;8.33;66.05
40570;BME280;26270;34.428;-119.710;2022-12-19T12:28:34;101790.88;;;8.15;66.33
40570;BME280;26270;34.428;-119.710;2022-12-19T12:31:17;101788.62;;;8.19;66.15
40570;BME280;26270;34.428;-119.710;2022-12-19T12:33:59;101787.29;;;8.36;66.17
40570;BME280;26270;34.428;-119.710;2022-12-19T12:36:38;101792.22;;;8.09;66.42
40570;BME280;26270;34.428;-119.710;2022-12-19T12:39:18;101795.12;;;8.18;66.78
40570;BME280;26270;34.428;-119.710;2022-12-19T12:41:57;101793.91;;;8.38;66.72
40570;BME280;26270;34.428;-119.710;2022-12-19T12:44:31;101796.05;;;8.23;66.20
40570;BME280;26270;34.428;-119.710;2022-12-19T12:47:08;101798.00;;;8.27;66.16
40570;BME280;26270;34.428;-119.710;2022-12-19T12:49:43;101800.54;;;8.41;66.15
40570;BME280;26270;34.428;-119.710;2022-12-19T12:52:15;101809.03;;;8.19;66.01